createdAt,value
2023-09-02T00:01:22.915Z,99632.34
2023-09-02T00:03:53.408Z,99653.34
2023-09-02T00:06:20.591Z,99656.34
2023-09-02T00:08:47.434Z,99647.78
2023-09-02T00:11:14.544Z,99649.38
2023-09-02T00:13:41.876Z,99648.88
2023-09-02T00:16:09.310Z,99633.06
2023-09-02T00:18:36.219Z,99649.00
2023-09-02T00:21:03.566Z,99650.00
2023-09-02T00:23:32.924Z,99653.97
2023-09-02T00:26:00.191Z,99653.88
2023-09-02T00:28:27.300Z,99646.31
2023-09-02T00:30:54.872Z,99656.66
2023-09-02T00:33:22.970Z,99622.53
2023-09-02T00:35:50.735Z,99641.84
2023-09-02T00:38:18.162Z,99637.00
2023-09-02T00:40:52.274Z,99653.72
2023-09-02T00:43:19.742Z,99644.91
2023-09-02T00:45:47.047Z,99645.28
2023-09-02T00:48:14.808Z,99642.03
2023-09-02T00:50:41.657Z,99652.28
2023-09-02T00:53:09.184Z,99649.41
2023-09-02T00:55:36.113Z,99624.34
2023-09-02T00:58:03.234Z,99650.91
2023-09-02T01:00:30.737Z,99656.97
2023-09-02T01:03:00.124Z,99657.88
2023-09-02T01:05:27.680Z,99665.50
2023-09-02T01:07:55.480Z,99652.75
2023-09-02T01:10:24.101Z,99620.38
2023-09-02T01:12:51.968Z,99652.28
2023-09-02T01:15:19.217Z,99655.88
2023-09-02T01:17:46.178Z,99634.84
2023-09-02T01:20:15.120Z,99657.41
2023-09-02T01:23:01.043Z,99660.44
2023-09-02T01:25:55.376Z,99651.75
2023-09-02T01:28:29.658Z,99652.44
2023-09-02T01:30:56.820Z,99649.66
2023-09-02T01:33:28.267Z,99633.16
2023-09-02T01:35:59.088Z,99663.97
2023-09-02T01:38:28.572Z,99643.94
2023-09-02T01:40:57.975Z,99632.25
2023-09-02T01:43:26.011Z,99650.47
2023-09-02T01:45:54.111Z,99643.31
2023-09-02T01:48:21.408Z,99625.25
2023-09-02T01:50:48.664Z,99647.88
2023-09-02T01:53:16.211Z,99646.44
2023-09-02T01:55:43.864Z,99642.50
2023-09-02T01:58:12.342Z,99644.03
2023-09-02T02:00:42.052Z,99627.47
2023-09-02T02:03:21.994Z,99653.91
2023-09-02T02:05:54.181Z,99654.63
2023-09-02T02:08:32.518Z,99644.03
2023-09-02T02:11:00.881Z,99654.63
2023-09-02T02:13:27.766Z,99654.00
2023-09-02T02:15:55.638Z,99643.75
2023-09-02T02:18:22.748Z,99635.22
2023-09-02T02:21:09.105Z,99659.56
2023-09-02T02:23:36.140Z,99638.53
2023-09-02T02:26:04.592Z,99657.13
2023-09-02T02:28:32.001Z,99642.47
2023-09-02T02:31:02.674Z,99653.00
2023-09-02T02:33:29.749Z,99633.94
2023-09-02T02:35:56.724Z,99642.47
2023-09-02T02:38:23.914Z,99651.72
2023-09-02T02:40:51.343Z,99640.84
2023-09-02T02:43:18.792Z,99652.44
2023-09-02T02:45:46.120Z,99648.66
2023-09-02T02:48:17.031Z,99626.00
2023-09-02T02:50:44.609Z,99636.31
2023-09-02T02:53:12.932Z,99642.69
2023-09-02T02:55:40.056Z,99649.88
2023-09-02T02:58:07.411Z,99654.66
2023-09-02T03:00:34.849Z,99637.47
2023-09-02T03:03:04.895Z,99655.19
2023-09-02T03:05:38.545Z,99656.97
2023-09-02T03:08:08.297Z,99654.28
2023-09-02T03:10:37.065Z,99653.91
2023-09-02T03:13:05.876Z,99662.81
2023-09-02T03:15:33.598Z,99548.94
2023-09-02T03:18:01.789Z,99662.72
2023-09-02T03:20:32.132Z,99666.13
2023-09-02T03:22:59.339Z,99672.50
2023-09-02T03:25:28.618Z,99647.34
2023-09-02T03:27:56.254Z,99670.78
2023-09-02T03:30:23.719Z,99678.31
2023-09-02T03:32:51.424Z,99678.75
2023-09-02T03:35:19.026Z,99677.59
2023-09-02T03:37:46.335Z,99675.72
2023-09-02T03:40:13.599Z,99680.59
2023-09-02T03:42:40.988Z,99691.34
2023-09-02T03:45:10.967Z,99685.41
2023-09-02T03:47:38.717Z,99672.06
2023-09-02T03:50:08.277Z,99689.78
2023-09-02T03:52:35.650Z,99663.34
2023-09-02T03:55:03.139Z,99651.50
2023-09-02T03:57:32.822Z,99696.84
2023-09-02T04:00:00.882Z,99691.66
2023-09-02T04:02:30.246Z,99679.34
2023-09-02T04:04:57.627Z,99677.28
2023-09-02T04:07:25.272Z,99701.66
2023-09-02T04:09:52.545Z,99659.38
2023-09-02T04:12:19.676Z,99662.06
2023-09-02T04:14:46.738Z,99701.50
2023-09-02T04:17:13.987Z,99668.44
2023-09-02T04:19:42.340Z,99707.88
2023-09-02T04:22:09.908Z,99701.00
2023-09-02T04:24:37.238Z,99712.25
2023-09-02T04:27:04.633Z,99680.22
2023-09-02T04:29:31.661Z,99717.00
2023-09-02T04:31:59.411Z,99720.94
2023-09-02T04:34:27.950Z,99725.00
2023-09-02T04:36:55.105Z,99720.00
2023-09-02T04:39:22.304Z,99685.38
2023-09-02T04:41:49.446Z,99724.34
2023-09-02T04:44:18.965Z,99728.94
2023-09-02T04:46:46.215Z,99726.59
2023-09-02T04:49:14.021Z,99721.22
2023-09-02T04:51:41.204Z,99723.31
2023-09-02T04:54:08.549Z,99726.38
2023-09-02T04:56:35.731Z,99718.84
2023-09-02T04:59:03.227Z,99722.44
2023-09-02T05:01:30.921Z,99714.88
2023-09-02T05:03:59.813Z,99714.97
2023-09-02T05:06:26.926Z,99719.28
2023-09-02T05:08:55.716Z,99701.44
2023-09-02T05:11:26.061Z,99690.94
2023-09-02T05:13:56.877Z,99721.75
2023-09-02T05:16:24.280Z,99729.94
2023-09-02T05:18:52.518Z,99725.22
2023-09-02T05:21:19.437Z,99730.88
2023-09-02T05:23:47.561Z,99730.41
2023-09-02T05:26:15.020Z,99702.31
2023-09-02T05:28:42.355Z,99698.44
2023-09-02T05:31:09.636Z,99727.38
2023-09-02T05:33:36.933Z,99717.59
2023-09-02T05:36:04.043Z,99732.88
2023-09-02T05:38:31.188Z,99733.09
2023-09-02T05:40:58.185Z,99702.59
2023-09-02T05:43:30.293Z,99737.09
2023-09-02T05:46:02.907Z,99726.50
2023-09-02T05:48:31.531Z,99709.31
2023-09-02T05:50:58.865Z,99735.03
2023-09-02T05:53:25.998Z,99735.22
2023-09-02T05:55:55.740Z,99735.66
2023-09-02T05:58:28.304Z,99732.63
2023-09-02T06:00:55.473Z,99711.72
2023-09-02T06:03:23.069Z,99742.13
2023-09-02T06:05:50.639Z,99738.56
2023-09-02T06:08:19.035Z,99744.78
2023-09-02T06:10:57.249Z,99730.50
2023-09-02T06:13:24.245Z,99745.13
2023-09-02T06:15:51.455Z,99729.19
2023-09-02T06:18:18.532Z,99747.94
2023-09-02T06:20:45.571Z,99719.94
2023-09-02T06:23:12.764Z,99757.16
2023-09-02T06:25:40.060Z,99749.13
2023-09-02T06:28:07.035Z,99757.44
2023-09-02T06:30:34.179Z,99755.50
2023-09-02T06:33:01.128Z,99758.13
2023-09-02T06:35:31.519Z,99750.63
2023-09-02T06:37:58.615Z,99734.25
2023-09-02T06:40:25.759Z,99749.34
2023-09-02T06:42:53.007Z,99756.28
2023-09-02T06:45:20.266Z,99752.78
2023-09-02T06:47:47.701Z,99758.94
2023-09-02T06:50:14.887Z,99758.69
2023-09-02T06:52:42.173Z,99747.44
2023-09-02T06:55:09.408Z,99749.50
2023-09-02T06:57:36.783Z,99757.53
2023-09-02T07:00:04.244Z,99767.63
2023-09-02T07:02:31.321Z,99754.78
2023-09-02T07:05:00.275Z,99764.47
2023-09-02T07:07:27.502Z,99758.91
2023-09-02T07:09:54.540Z,99765.78
2023-09-02T07:12:21.775Z,99769.91
2023-09-02T07:14:49.090Z,99771.16
2023-09-02T07:17:16.154Z,99748.66
2023-09-02T07:19:43.474Z,99765.16
2023-09-02T07:22:10.973Z,99767.59
2023-09-02T07:24:37.983Z,99758.75
2023-09-02T07:27:05.572Z,99733.81
2023-09-02T07:29:32.814Z,99753.97
2023-09-02T07:32:00.134Z,99760.00
2023-09-02T07:34:27.251Z,99754.72
2023-09-02T07:36:54.635Z,99743.03
2023-09-02T07:39:21.581Z,99755.91
2023-09-02T07:41:50.153Z,99763.16
2023-09-02T07:44:17.231Z,99756.69
2023-09-02T07:46:44.710Z,99722.91
2023-09-02T07:49:11.695Z,99765.97
2023-09-02T07:51:39.101Z,99748.63
2023-09-02T07:54:06.148Z,99733.38
2023-09-02T07:56:32.987Z,99767.91
2023-09-02T07:59:00.157Z,99758.59
2023-09-02T08:01:28.451Z,99758.16
2023-09-02T08:03:55.947Z,99760.53
2023-09-02T08:06:23.131Z,99766.16
2023-09-02T08:08:50.447Z,99722.66
2023-09-02T08:11:19.285Z,99757.56
2023-09-02T08:13:46.669Z,99758.38
2023-09-02T08:16:13.767Z,99750.69
2023-09-02T08:18:40.962Z,99748.25
2023-09-02T08:21:10.055Z,99762.28
2023-09-02T08:23:39.828Z,99747.41
2023-09-02T08:26:11.712Z,99751.31
2023-09-02T08:28:38.781Z,99747.31
2023-09-02T08:31:06.200Z,99754.56
2023-09-02T08:33:33.193Z,99756.16
2023-09-02T08:36:00.538Z,99743.25
2023-09-02T08:38:27.813Z,99752.06
2023-09-02T08:40:55.727Z,99754.84
2023-09-02T08:43:23.373Z,99759.56
2023-09-02T08:45:54.048Z,99749.34
2023-09-02T08:48:26.963Z,99747.34
2023-09-02T08:50:56.051Z,99736.81
2023-09-02T08:53:25.176Z,99723.47
2023-09-02T08:55:54.145Z,99755.50
2023-09-02T08:58:21.669Z,99735.38
2023-09-02T09:00:50.072Z,99753.94
2023-09-02T09:03:20.197Z,99736.97
2023-09-02T09:05:49.982Z,99736.13
2023-09-02T09:08:18.164Z,99737.75
2023-09-02T09:10:46.201Z,99750.53
2023-09-02T09:13:15.169Z,99706.28
2023-09-02T09:15:43.468Z,99744.66
2023-09-02T09:18:13.158Z,99743.31
2023-09-02T09:20:41.084Z,99729.41
2023-09-02T09:23:09.522Z,99734.16
2023-09-02T09:25:37.234Z,99714.00
2023-09-02T09:28:12.610Z,99730.03
2023-09-02T09:30:40.047Z,99701.41
2023-09-02T09:33:08.407Z,99724.66
2023-09-02T09:35:36.730Z,99725.78
2023-09-02T09:38:04.612Z,99726.56
2023-09-02T09:40:40.015Z,99729.63
2023-09-02T09:43:18.635Z,99720.72
2023-09-02T09:45:53.319Z,99699.53
2023-09-02T09:48:20.880Z,99720.06
2023-09-02T09:50:47.928Z,99718.13
2023-09-02T09:53:15.268Z,99700.19
2023-09-02T09:55:42.484Z,99715.59
2023-09-02T09:58:10.017Z,99714.63
2023-09-02T10:00:37.532Z,99679.09
2023-09-02T10:03:05.759Z,99697.00
2023-09-02T10:05:35.243Z,99693.47
2023-09-02T10:08:08.780Z,99694.06
2023-09-02T10:10:40.191Z,99700.72
2023-09-02T10:13:07.360Z,99682.41
2023-09-02T10:15:34.660Z,99697.81
2023-09-02T10:18:07.331Z,99696.75
2023-09-02T10:20:36.756Z,99694.13
2023-09-02T10:23:11.637Z,99694.47
2023-09-02T10:25:59.017Z,99686.47
2023-09-02T10:28:38.344Z,99689.31
2023-09-02T10:31:23.243Z,99681.84
2023-09-02T10:34:08.769Z,99699.09
2023-09-02T10:36:40.325Z,99697.19
2023-09-02T10:39:14.478Z,99678.72
2023-09-02T10:41:42.797Z,99690.47
2023-09-02T10:44:11.960Z,99690.66
2023-09-02T10:46:40.440Z,99684.59
2023-09-02T10:49:08.194Z,99693.63
2023-09-02T10:51:35.431Z,99675.22
2023-09-02T10:54:03.578Z,99651.38
2023-09-02T10:56:36.053Z,99696.56
2023-09-02T10:59:05.468Z,99685.13
2023-09-02T11:01:49.519Z,99680.13
2023-09-02T11:05:00.853Z,99688.78
2023-09-02T11:07:28.523Z,99693.31
2023-09-02T11:09:57.499Z,99686.13
2023-09-02T11:12:25.693Z,99669.72
2023-09-02T11:15:08.145Z,99670.28
2023-09-02T11:17:45.270Z,99658.22
2023-09-02T11:20:17.035Z,99658.28
2023-09-02T11:22:57.441Z,99661.72
2023-09-02T11:25:34.462Z,99654.16
2023-09-02T11:28:14.900Z,99668.66
2023-09-02T11:31:04.032Z,99668.94
2023-09-02T11:33:31.694Z,99654.66
2023-09-02T11:36:07.333Z,99663.78
2023-09-02T11:38:35.726Z,99642.38
2023-09-02T11:41:03.553Z,99664.16
2023-09-02T11:43:35.930Z,99662.69
2023-09-02T11:46:04.706Z,99662.41
2023-09-02T11:48:32.757Z,99650.38
2023-09-02T11:51:00.246Z,99621.28
2023-09-02T11:53:32.050Z,99627.31
2023-09-02T11:55:59.219Z,99638.88
2023-09-02T11:58:26.699Z,99624.84
2023-09-02T12:00:53.758Z,99639.44
2023-09-02T12:03:25.865Z,99631.13
2023-09-02T12:05:55.179Z,99633.81
2023-09-02T12:08:23.287Z,99605.88
2023-09-02T12:10:52.772Z,99598.88
2023-09-02T12:13:30.965Z,99627.44
2023-09-02T12:15:58.174Z,99621.13
2023-09-02T12:18:26.495Z,99620.25
2023-09-02T12:20:53.969Z,99615.97
2023-09-02T12:23:21.654Z,99622.03
2023-09-02T12:26:10.348Z,99603.94
2023-09-02T12:28:37.904Z,99614.25
2023-09-02T12:31:06.091Z,99594.56
2023-09-02T12:33:35.541Z,99618.50
2023-09-02T12:36:05.099Z,99605.19
2023-09-02T12:38:51.887Z,99591.63
2023-09-02T12:41:19.031Z,99605.75
2023-09-02T12:43:46.247Z,99604.66
2023-09-02T12:46:18.966Z,99579.91
2023-09-02T12:48:47.786Z,99597.38
2023-09-02T12:51:29.437Z,99591.91
2023-09-02T12:53:58.764Z,99592.00
2023-09-02T12:56:25.919Z,99571.84
2023-09-02T12:58:53.074Z,99597.03
2023-09-02T13:01:20.528Z,99597.59
2023-09-02T13:03:47.713Z,99582.31
2023-09-02T13:06:14.977Z,99589.16
2023-09-02T13:08:45.772Z,99597.31
2023-09-02T13:11:13.044Z,99592.59
2023-09-02T13:13:40.240Z,99584.19
2023-09-02T13:16:07.517Z,99591.63
2023-09-02T13:18:34.481Z,99593.84
2023-09-02T13:21:01.784Z,99596.31
2023-09-02T13:23:32.728Z,99584.78
2023-09-02T13:26:01.252Z,99597.22
2023-09-02T13:28:36.170Z,99591.09
2023-09-02T13:31:04.242Z,99587.19
2023-09-02T13:33:31.774Z,99579.72
2023-09-02T13:36:00.619Z,99586.19
2023-09-02T13:38:29.619Z,99580.16
2023-09-02T13:40:56.812Z,99558.59
2023-09-02T13:43:25.831Z,99591.47
2023-09-02T13:45:53.600Z,99568.63
2023-09-02T13:48:22.177Z,99574.41
2023-09-02T13:50:51.847Z,99561.25
2023-09-02T13:53:20.674Z,99572.25
2023-09-02T13:55:49.678Z,99580.25
2023-09-02T13:58:22.867Z,99573.44
2023-09-02T14:00:52.984Z,99565.81
2023-09-02T14:03:27.778Z,99574.75
2023-09-02T14:05:56.571Z,99579.72
2023-09-02T14:08:38.808Z,99579.53
2023-09-02T14:11:08.991Z,99564.97
2023-09-02T14:13:41.178Z,99571.38
2023-09-02T14:16:09.965Z,99575.59
2023-09-02T14:18:37.386Z,99556.94
2023-09-02T14:21:04.606Z,99568.06
2023-09-02T14:23:38.339Z,99570.59
2023-09-02T14:26:06.565Z,99571.53
2023-09-02T14:28:35.234Z,99562.00
2023-09-02T14:31:02.471Z,99566.59
2023-09-02T14:33:29.895Z,99564.94
2023-09-02T14:35:57.258Z,99567.75
2023-09-02T14:38:24.581Z,99557.16
2023-09-02T14:40:51.547Z,99563.31
2023-09-02T14:43:18.798Z,99569.88
2023-09-02T14:45:46.112Z,99573.53
2023-09-02T14:48:14.004Z,99573.50
2023-09-02T14:50:42.620Z,99579.22
2023-09-02T14:53:09.929Z,99567.31
2023-09-02T14:55:37.382Z,99571.75
2023-09-02T14:58:04.583Z,99554.72
2023-09-02T15:00:32.150Z,99560.41
2023-09-02T15:03:02.954Z,99569.06
2023-09-02T15:05:34.097Z,99580.94
2023-09-02T15:08:04.173Z,99579.25
2023-09-02T15:10:31.324Z,99563.97
2023-09-02T15:13:03.344Z,99577.44
2023-09-02T15:15:39.963Z,99578.00
2023-09-02T15:18:13.820Z,99582.44
2023-09-02T15:20:41.894Z,99572.75
2023-09-02T15:23:09.526Z,99563.75
2023-09-02T15:25:36.733Z,99574.94
2023-09-02T15:28:07.394Z,99580.38
2023-09-02T15:30:35.049Z,99575.72
2023-09-02T15:33:04.763Z,99578.69
2023-09-02T15:35:33.934Z,99573.97
2023-09-02T15:38:01.446Z,99581.28
2023-09-02T15:40:31.500Z,99582.19
2023-09-02T15:43:03.889Z,99570.25
2023-09-02T15:45:33.726Z,99570.25
2023-09-02T15:48:00.970Z,99580.34
2023-09-02T15:50:30.032Z,99579.97
2023-09-02T15:52:57.178Z,99580.03
2023-09-02T15:55:24.934Z,99582.19
2023-09-02T15:57:53.411Z,99586.59
2023-09-02T16:00:24.359Z,99574.59
2023-09-02T16:02:52.172Z,99573.56
2023-09-02T16:05:19.735Z,99591.16
2023-09-02T16:07:51.272Z,99603.91
2023-09-02T16:10:19.071Z,99585.56
2023-09-02T16:12:46.463Z,99594.84
2023-09-02T16:15:15.570Z,99603.81
2023-09-02T16:17:43.501Z,99607.44
2023-09-02T16:20:11.905Z,99602.38
2023-09-02T16:22:43.042Z,99606.13
2023-09-02T16:25:11.425Z,99602.97
2023-09-02T16:27:40.117Z,99608.72
2023-09-02T16:30:10.413Z,99603.22
2023-09-02T16:32:38.396Z,99624.66
2023-09-02T16:35:06.589Z,99618.25
2023-09-02T16:37:44.879Z,99628.88
2023-09-02T16:40:12.824Z,99628.97
2023-09-02T16:42:42.360Z,99618.97
2023-09-02T16:45:12.812Z,99631.97
2023-09-02T16:47:53.513Z,99625.72
2023-09-02T16:50:21.385Z,99629.03
2023-09-02T16:52:53.842Z,99615.56
2023-09-02T16:55:26.370Z,99629.66
2023-09-02T16:57:54.387Z,99622.53
2023-09-02T17:00:25.804Z,99637.09
2023-09-02T17:02:53.663Z,99636.91
2023-09-02T17:05:25.487Z,99631.69
2023-09-02T17:07:54.591Z,99640.97
2023-09-02T17:10:24.526Z,99633.03
2023-09-02T17:12:52.921Z,99625.91
2023-09-02T17:15:22.528Z,99650.84
2023-09-02T17:17:51.482Z,99637.63
2023-09-02T17:20:24.648Z,99643.28
2023-09-02T17:22:52.054Z,99638.91
2023-09-02T17:25:19.271Z,99641.38
2023-09-02T17:27:49.712Z,99646.28
2023-09-02T17:30:20.446Z,99647.91
2023-09-02T17:32:50.719Z,99643.91
2023-09-02T17:35:18.062Z,99640.75
2023-09-02T17:37:46.171Z,99652.84
2023-09-02T17:40:14.626Z,99652.03
2023-09-02T17:42:45.212Z,99659.66
2023-09-02T17:45:13.853Z,99654.03
2023-09-02T17:47:41.446Z,99664.13
2023-09-02T17:50:10.920Z,99642.47
2023-09-02T17:52:38.785Z,99650.09
2023-09-02T17:55:06.786Z,99659.38
2023-09-02T17:57:36.070Z,99651.78
2023-09-02T18:00:07.336Z,99652.19
2023-09-02T18:02:36.771Z,99670.69
2023-09-02T18:05:05.243Z,99661.47
2023-09-02T18:07:33.103Z,99673.13
2023-09-02T18:10:01.042Z,99674.28
2023-09-02T18:12:28.190Z,99685.97
2023-09-02T18:14:55.232Z,99671.09
2023-09-02T18:17:22.224Z,99689.97
2023-09-02T18:19:49.598Z,99686.38
2023-09-02T18:22:16.664Z,99682.75
2023-09-02T18:24:52.394Z,99658.63
2023-09-02T18:27:19.441Z,99681.94
2023-09-02T18:29:46.549Z,99685.56
2023-09-02T18:32:13.841Z,99683.53
2023-09-02T18:34:41.073Z,99696.00
2023-09-02T18:37:08.141Z,99688.75
2023-09-02T18:39:35.367Z,99698.00
2023-09-02T18:42:02.381Z,99694.31
2023-09-02T18:44:31.001Z,99668.97
2023-09-02T18:46:57.972Z,99689.06
2023-09-02T18:49:25.112Z,99706.75
2023-09-02T18:51:52.236Z,99708.31
2023-09-02T18:54:19.112Z,99708.31
2023-09-02T18:56:46.197Z,99714.69
2023-09-02T18:59:13.267Z,99703.41
2023-09-02T19:01:40.096Z,99710.63
2023-09-02T19:04:09.236Z,99726.31
2023-09-02T19:06:36.982Z,99715.00
2023-09-02T19:09:04.613Z,99718.19
2023-09-02T19:11:32.003Z,99725.03
2023-09-02T19:13:59.234Z,99722.22
2023-09-02T19:16:26.942Z,99722.56
2023-09-02T19:18:55.132Z,99716.00
2023-09-02T19:21:23.462Z,99720.72
2023-09-02T19:23:51.068Z,99696.50
2023-09-02T19:26:18.329Z,99710.16
2023-09-02T19:28:45.732Z,99649.19
2023-09-02T19:31:12.760Z,99701.94
2023-09-02T19:33:40.050Z,99707.50
2023-09-02T19:36:17.496Z,99711.06
2023-09-02T19:38:44.703Z,99717.47
2023-09-02T19:41:12.089Z,99698.59
2023-09-02T19:43:40.174Z,99704.56
2023-09-02T19:46:08.321Z,99715.84
2023-09-02T19:48:35.659Z,99684.00
2023-09-02T19:51:02.846Z,99698.81
2023-09-02T19:53:30.913Z,99712.56
2023-09-02T19:56:00.469Z,99704.03
2023-09-02T19:58:27.819Z,99718.50
2023-09-02T20:00:54.976Z,99717.63
2023-09-02T20:03:23.503Z,99730.94
2023-09-02T20:05:50.677Z,99734.47
2023-09-02T20:08:17.932Z,99720.75
2023-09-02T20:10:45.657Z,99707.47
2023-09-02T20:13:12.879Z,99707.81
2023-09-02T20:15:40.207Z,99738.31
2023-09-02T20:18:07.136Z,99742.28
2023-09-02T20:20:34.220Z,99743.84
2023-09-02T20:23:01.458Z,99712.28
2023-09-02T20:25:33.063Z,99750.88
2023-09-02T20:28:00.563Z,99734.28
2023-09-02T20:30:27.598Z,99725.69
2023-09-02T20:32:54.843Z,99737.31
2023-09-02T20:35:21.921Z,99738.88
2023-09-02T20:37:48.996Z,99737.97
2023-09-02T20:40:16.241Z,99724.63
2023-09-02T20:42:43.176Z,99726.13
2023-09-02T20:45:10.640Z,99739.00
2023-09-02T20:47:37.865Z,99745.75
2023-09-02T20:50:05.114Z,99747.66
2023-09-02T20:52:32.359Z,99742.78
2023-09-02T20:55:00.175Z,99739.44
2023-09-02T20:57:56.240Z,99744.53
2023-09-02T21:00:30.500Z,99695.19
2023-09-02T21:02:57.936Z,99731.09
2023-09-02T21:05:55.705Z,99711.66
2023-09-02T21:08:23.642Z,99730.94
2023-09-02T21:10:53.305Z,99730.00
2023-09-02T21:13:20.175Z,99739.75
2023-09-02T21:15:47.391Z,99723.97
2023-09-02T21:18:14.528Z,99727.66
2023-09-02T21:20:43.347Z,99733.69
2023-09-02T21:23:10.617Z,99734.84
2023-09-02T21:25:37.641Z,99717.47
2023-09-02T21:28:38.145Z,99735.91
2023-09-02T21:31:09.226Z,99730.94
2023-09-02T21:33:36.500Z,99736.38
2023-09-02T21:36:04.099Z,99733.22
2023-09-02T21:38:32.789Z,99732.78
2023-09-02T21:41:04.310Z,99728.75
2023-09-02T21:43:37.269Z,99730.28
2023-09-02T21:46:11.587Z,99736.75
2023-09-02T21:48:40.242Z,99729.56
2023-09-02T21:51:09.010Z,99706.28
2023-09-02T21:53:40.352Z,99721.53
2023-09-02T21:56:07.256Z,99743.06
2023-09-02T21:58:34.578Z,99749.03
2023-09-02T22:01:02.814Z,99736.59
2023-09-02T22:03:30.807Z,99732.84
2023-09-02T22:06:07.058Z,99758.59
2023-09-02T22:08:34.176Z,99750.22
2023-09-02T22:11:01.598Z,99749.84
2023-09-02T22:13:29.177Z,99739.47
2023-09-02T22:15:57.787Z,99743.34
2023-09-02T22:18:26.614Z,99737.97
2023-09-02T22:20:55.566Z,99725.50
2023-09-02T22:23:24.189Z,99723.38
2023-09-02T22:25:51.601Z,99726.81
2023-09-02T22:28:18.460Z,99734.41
2023-09-02T22:30:45.471Z,99735.91
2023-09-02T22:33:13.012Z,99731.41
2023-09-02T22:35:40.012Z,99732.31
2023-09-02T22:38:10.025Z,99717.69
2023-09-02T22:40:37.928Z,99733.78
2023-09-02T22:43:04.917Z,99732.88
2023-09-02T22:45:37.113Z,99713.41
2023-09-02T22:48:05.293Z,99735.97
2023-09-02T22:50:33.693Z,99726.63
2023-09-02T22:53:03.680Z,99733.47
2023-09-02T22:55:33.434Z,99714.44
2023-09-02T22:58:08.132Z,99737.72
2023-09-02T23:00:36.551Z,99740.69
2023-09-02T23:03:04.663Z,99733.47
2023-09-02T23:05:32.285Z,99712.00
2023-09-02T23:08:01.189Z,99741.13
2023-09-02T23:10:29.865Z,99736.72
2023-09-02T23:12:57.463Z,99744.19
2023-09-02T23:15:24.503Z,99752.78
2023-09-02T23:17:53.418Z,99728.25
2023-09-02T23:20:21.762Z,99755.25
2023-09-02T23:22:49.973Z,99747.97
2023-09-02T23:25:16.866Z,99755.19
2023-09-02T23:27:53.430Z,99727.16
2023-09-02T23:30:21.254Z,99723.91
2023-09-02T23:32:50.379Z,99737.50
2023-09-02T23:35:17.598Z,99728.00
2023-09-02T23:37:46.206Z,99745.81
2023-09-02T23:40:16.360Z,99743.00
2023-09-02T23:42:44.339Z,99740.50
2023-09-02T23:45:12.409Z,99749.97
2023-09-02T23:47:39.405Z,99749.97
2023-09-02T23:50:07.304Z,99745.44
2023-09-02T23:52:35.208Z,99729.41
2023-09-02T23:55:03.152Z,99740.28
2023-09-02T23:57:30.110Z,99727.34
2023-09-02T23:59:57.344Z,99729.84
